sensor_id;sensor_type;location;lat;lon;timestamp;temperature;humidity
7562;DHT22;3822;48.784;9.174;2023-04-24T00:00:41;13.30;93.10
7562;DHT22;3822;48.784;9.174;2023-04-24T00:03:08;13.30;93.10
7562;DHT22;3822;48.784;9.174;2023-04-24T00:05:34;13.30;93.00
7562;DHT22;3822;48.784;9.174;2023-04-24T00:08:00;13.40;93.00
7562;DHT22;3822;48.784;9.174;2023-04-24T00:10:26;13.40;92.90
7562;DHT22;3822;48.784;9.174;2023-04-24T00:12:53;13.30;92.80
7562;DHT22;3822;48.784;9.174;2023-04-24T00:15:19;13.40;92.90
7562;DHT22;3822;48.784;9.174;2023-04-24T00:17:45;13.40;92.70
7562;DHT22;3822;48.784;9.174;2023-04-24T00:20:12;13.40;92.60
7562;DHT22;3822;48.784;9.174;2023-04-24T00:22:40;13.40;92.50
7562;DHT22;3822;48.784;9.174;2023-04-24T00:25:07;13.40;92.30
7562;DHT22;3822;48.784;9.174;2023-04-24T00:27:33;13.50;92.30
7562;DHT22;3822;48.784;9.174;2023-04-24T00:30:01;13.50;92.60
7562;DHT22;3822;48.784;9.174;2023-04-24T00:32:27;13.50;92.30
7562;DHT22;3822;48.784;9.174;2023-04-24T00:34:54;13.50;92.20
7562;DHT22;3822;48.784;9.174;2023-04-24T00:37:20;13.50;92.10
7562;DHT22;3822;48.784;9.174;2023-04-24T00:39:46;13.60;92.20
7562;DHT22;3822;48.784;9.174;2023-04-24T00:42:12;13.60;92.10
7562;DHT22;3822;48.784;9.174;2023-04-24T00:44:39;13.60;92.00
7562;DHT22;3822;48.784;9.174;2023-04-24T00:47:05;13.60;91.90
7562;DHT22;3822;48.784;9.174;2023-04-24T00:49:31;13.60;91.90
7562;DHT22;3822;48.784;9.174;2023-04-24T00:51:58;13.60;91.70
7562;DHT22;3822;48.784;9.174;2023-04-24T00:54:25;13.60;91.70
7562;DHT22;3822;48.784;9.174;2023-04-24T00:56:51;13.60;91.70
7562;DHT22;3822;48.784;9.174;2023-04-24T00:59:18;13.60;91.70
7562;DHT22;3822;48.784;9.174;2023-04-24T01:01:44;13.70;91.70
7562;DHT22;3822;48.784;9.174;2023-04-24T01:04:11;13.70;91.60
7562;DHT22;3822;48.784;9.174;2023-04-24T01:06:40;13.70;91.60
7562;DHT22;3822;48.784;9.174;2023-04-24T01:09:08;13.70;91.60
7562;DHT22;3822;48.784;9.174;2023-04-24T01:11:35;13.70;91.50
7562;DHT22;3822;48.784;9.174;2023-04-24T01:14:02;13.70;91.50
7562;DHT22;3822;48.784;9.174;2023-04-24T01:16:29;13.70;91.50
7562;DHT22;3822;48.784;9.174;2023-04-24T01:18:55;13.80;91.60
7562;DHT22;3822;48.784;9.174;2023-04-24T01:21:21;13.70;91.50
7562;DHT22;3822;48.784;9.174;2023-04-24T01:23:53;13.80;91.60
7562;DHT22;3822;48.784;9.174;2023-04-24T01:26:19;13.70;91.50
7562;DHT22;3822;48.784;9.174;2023-04-24T01:28:46;13.80;91.50
7562;DHT22;3822;48.784;9.174;2023-04-24T01:31:12;13.80;91.50
7562;DHT22;3822;48.784;9.174;2023-04-24T01:33:39;15.60;92.30
7562;DHT22;3822;48.784;9.174;2023-04-24T01:36:05;13.80;91.60
7562;DHT22;3822;48.784;9.174;2023-04-24T01:38:32;13.80;91.70
7562;DHT22;3822;48.784;9.174;2023-04-24T01:41:00;13.80;91.70
7562;DHT22;3822;48.784;9.174;2023-04-24T01:43:27;13.80;91.80
7562;DHT22;3822;48.784;9.174;2023-04-24T01:45:54;15.10;92.40
7562;DHT22;3822;48.784;9.174;2023-04-24T01:48:20;13.80;91.80
7562;DHT22;3822;48.784;9.174;2023-04-24T01:50:49;13.80;91.90
7562;DHT22;3822;48.784;9.174;2023-04-24T01:53:15;13.80;92.00
7562;DHT22;3822;48.784;9.174;2023-04-24T01:55:41;13.80;92.00
7562;DHT22;3822;48.784;9.174;2023-04-24T01:58:08;13.80;92.10
7562;DHT22;3822;48.784;9.174;2023-04-24T02:00:34;13.80;92.10
7562;DHT22;3822;48.784;9.174;2023-04-24T02:03:01;13.80;92.10
7562;DHT22;3822;48.784;9.174;2023-04-24T02:05:30;13.10;91.80
7562;DHT22;3822;48.784;9.174;2023-04-24T02:07:56;13.70;92.20
7562;DHT22;3822;48.784;9.174;2023-04-24T02:10:22;13.70;92.20
7562;DHT22;3822;48.784;9.174;2023-04-24T02:12:49;13.70;92.10
7562;DHT22;3822;48.784;9.174;2023-04-24T02:15:15;13.70;92.20
7562;DHT22;3822;48.784;9.174;2023-04-24T02:17:42;13.70;92.20
7562;DHT22;3822;48.784;9.174;2023-04-24T02:20:08;13.80;92.20
7562;DHT22;3822;48.784;9.174;2023-04-24T02:22:34;13.80;92.20
7562;DHT22;3822;48.784;9.174;2023-04-24T02:25:00;13.80;92.20
7562;DHT22;3822;48.784;9.174;2023-04-24T02:27:27;13.70;92.30
7562;DHT22;3822;48.784;9.174;2023-04-24T02:29:53;13.70;92.40
7562;DHT22;3822;48.784;9.174;2023-04-24T02:32:19;13.70;92.30
7562;DHT22;3822;48.784;9.174;2023-04-24T02:34:46;13.80;92.30
7562;DHT22;3822;48.784;9.174;2023-04-24T02:37:12;13.70;92.20
7562;DHT22;3822;48.784;9.174;2023-04-24T02:39:38;13.80;92.30
7562;DHT22;3822;48.784;9.174;2023-04-24T02:42:05;13.70;92.30
7562;DHT22;3822;48.784;9.174;2023-04-24T02:44:31;13.70;92.30
7562;DHT22;3822;48.784;9.174;2023-04-24T02:46:57;13.60;92.40
7562;DHT22;3822;48.784;9.174;2023-04-24T02:49:23;13.70;92.70
7562;DHT22;3822;48.784;9.174;2023-04-24T02:51:50;13.60;92.80
7562;DHT22;3822;48.784;9.174;2023-04-24T02:54:16;13.60;93.00
7562;DHT22;3822;48.784;9.174;2023-04-24T02:56:42;13.60;93.00
7562;DHT22;3822;48.784;9.174;2023-04-24T02:59:09;13.60;93.10
7562;DHT22;3822;48.784;9.174;2023-04-24T03:01:36;13.60;93.20
7562;DHT22;3822;48.784;9.174;2023-04-24T03:04:02;13.60;93.20
7562;DHT22;3822;48.784;9.174;2023-04-24T03:06:29;13.70;93.30
7562;DHT22;3822;48.784;9.174;2023-04-24T03:08:57;13.70;93.40
7562;DHT22;3822;48.784;9.174;2023-04-24T03:11:23;13.80;93.50
7562;DHT22;3822;48.784;9.174;2023-04-24T03:13:49;13.70;93.40
7562;DHT22;3822;48.784;9.174;2023-04-24T03:16:16;13.70;93.50
7562;DHT22;3822;48.784;9.174;2023-04-24T03:18:42;13.70;93.50
7562;DHT22;3822;48.784;9.174;2023-04-24T03:21:08;13.70;93.60
7562;DHT22;3822;48.784;9.174;2023-04-24T03:23:35;13.60;93.60
7562;DHT22;3822;48.784;9.174;2023-04-24T03:26:01;13.60;93.60
7562;DHT22;3822;48.784;9.174;2023-04-24T03:28:28;13.50;93.60
7562;DHT22;3822;48.784;9.174;2023-04-24T03:30:54;13.50;93.60
7562;DHT22;3822;48.784;9.174;2023-04-24T03:33:20;13.50;93.70
7562;DHT22;3822;48.784;9.174;2023-04-24T03:35:46;13.50;93.80
7562;DHT22;3822;48.784;9.174;2023-04-24T03:38:13;13.50;93.80
7562;DHT22;3822;48.784;9.174;2023-04-24T03:40:39;13.50;93.90
7562;DHT22;3822;48.784;9.174;2023-04-24T03:43:05;13.40;93.90
7562;DHT22;3822;48.784;9.174;2023-04-24T03:45:32;13.40;94.10
7562;DHT22;3822;48.784;9.174;2023-04-24T03:47:58;13.40;94.10
7562;DHT22;3822;48.784;9.174;2023-04-24T03:50:24;13.40;94.10
7562;DHT22;3822;48.784;9.174;2023-04-24T03:52:52;13.40;94.10
7562;DHT22;3822;48.784;9.174;2023-04-24T03:55:18;14.20;94.60
7562;DHT22;3822;48.784;9.174;2023-04-24T03:57:45;13.30;94.20
7562;DHT22;3822;48.784;9.174;2023-04-24T04:00:11;13.30;94.20
7562;DHT22;3822;48.784;9.174;2023-04-24T04:02:38;13.40;94.30
7562;DHT22;3822;48.784;9.174;2023-04-24T04:05:04;13.30;94.30
7562;DHT22;3822;48.784;9.174;2023-04-24T04:07:30;13.40;94.30
7562;DHT22;3822;48.784;9.174;2023-04-24T04:09:57;13.30;94.30
7562;DHT22;3822;48.784;9.174;2023-04-24T04:12:24;13.20;94.40
7562;DHT22;3822;48.784;9.174;2023-04-24T04:14:50;13.20;94.50
7562;DHT22;3822;48.784;9.174;2023-04-24T04:17:19;13.20;94.40
7562;DHT22;3822;48.784;9.174;2023-04-24T04:19:45;13.20;94.40
7562;DHT22;3822;48.784;9.174;2023-04-24T04:22:11;13.20;94.50
7562;DHT22;3822;48.784;9.174;2023-04-24T04:24:38;13.10;94.40
7562;DHT22;3822;48.784;9.174;2023-04-24T04:27:06;13.10;94.60
7562;DHT22;3822;48.784;9.174;2023-04-24T04:29:33;13.10;94.80
7562;DHT22;3822;48.784;9.174;2023-04-24T04:32:01;13.00;94.80
7562;DHT22;3822;48.784;9.174;2023-04-24T04:34:28;12.90;93.90
7562;DHT22;3822;48.784;9.174;2023-04-24T04:36:55;12.80;93.60
7562;DHT22;3822;48.784;9.174;2023-04-24T04:39:22;12.80;93.50
7562;DHT22;3822;48.784;9.174;2023-04-24T04:41:48;12.70;93.40
7562;DHT22;3822;48.784;9.174;2023-04-24T04:44:14;12.70;93.60
7562;DHT22;3822;48.784;9.174;2023-04-24T04:46:41;12.70;93.60
7562;DHT22;3822;48.784;9.174;2023-04-24T04:49:07;13.70;94.10
7562;DHT22;3822;48.784;9.174;2023-04-24T04:51:34;12.60;93.60
7562;DHT22;3822;48.784;9.174;2023-04-24T04:54:00;12.60;93.60
7562;DHT22;3822;48.784;9.174;2023-04-24T04:56:27;12.50;93.30
7562;DHT22;3822;48.784;9.174;2023-04-24T04:58:53;12.50;93.30
7562;DHT22;3822;48.784;9.174;2023-04-24T05:01:19;12.50;93.30
7562;DHT22;3822;48.784;9.174;2023-04-24T05:03:47;12.50;93.40
7562;DHT22;3822;48.784;9.174;2023-04-24T05:06:14;12.50;93.40
7562;DHT22;3822;48.784;9.174;2023-04-24T05:08:42;12.50;93.70
7562;DHT22;3822;48.784;9.174;2023-04-24T05:11:08;12.40;93.40
7562;DHT22;3822;48.784;9.174;2023-04-24T05:13:34;12.40;93.30
7562;DHT22;3822;48.784;9.174;2023-04-24T05:16:01;12.30;93.20
7562;DHT22;3822;48.784;9.174;2023-04-24T05:18:29;12.40;93.30
7562;DHT22;3822;48.784;9.174;2023-04-24T05:20:56;12.30;93.30
7562;DHT22;3822;48.784;9.174;2023-04-24T05:23:22;12.30;93.40
7562;DHT22;3822;48.784;9.174;2023-04-24T05:25:50;12.30;93.40
7562;DHT22;3822;48.784;9.174;2023-04-24T05:28:17;12.30;93.40
7562;DHT22;3822;48.784;9.174;2023-04-24T05:30:46;12.30;93.40
7562;DHT22;3822;48.784;9.174;2023-04-24T05:35:44;13.50;94.00
7562;DHT22;3822;48.784;9.174;2023-04-24T05:38:12;12.30;93.50
7562;DHT22;3822;48.784;9.174;2023-04-24T05:40:39;12.40;93.40
7562;DHT22;3822;48.784;9.174;2023-04-24T05:43:05;12.20;93.20
7562;DHT22;3822;48.784;9.174;2023-04-24T05:45:32;12.30;93.30
7562;DHT22;3822;48.784;9.174;2023-04-24T05:48:01;12.30;93.30
7562;DHT22;3822;48.784;9.174;2023-04-24T05:50:28;12.30;93.30
7562;DHT22;3822;48.784;9.174;2023-04-24T05:52:54;12.30;93.30
7562;DHT22;3822;48.784;9.174;2023-04-24T05:55:22;12.30;93.20
7562;DHT22;3822;48.784;9.174;2023-04-24T05:57:48;12.40;93.30
7562;DHT22;3822;48.784;9.174;2023-04-24T06:00:14;12.40;93.30
7562;DHT22;3822;48.784;9.174;2023-04-24T06:02:41;12.40;93.30
7562;DHT22;3822;48.784;9.174;2023-04-24T06:05:08;12.40;93.30
7562;DHT22;3822;48.784;9.174;2023-04-24T06:07:34;12.40;93.30
7562;DHT22;3822;48.784;9.174;2023-04-24T06:10:00;12.40;93.30
7562;DHT22;3822;48.784;9.174;2023-04-24T06:12:27;12.40;93.20
7562;DHT22;3822;48.784;9.174;2023-04-24T06:14:54;12.50;93.30
7562;DHT22;3822;48.784;9.174;2023-04-24T06:17:21;12.50;93.20
7562;DHT22;3822;48.784;9.174;2023-04-24T06:19:47;12.50;93.10
7562;DHT22;3822;48.784;9.174;2023-04-24T06:22:14;12.50;93.10
7562;DHT22;3822;48.784;9.174;2023-04-24T06:24:40;12.60;93.10
7562;DHT22;3822;48.784;9.174;2023-04-24T06:27:07;12.60;93.10
7562;DHT22;3822;48.784;9.174;2023-04-24T06:29:33;12.70;93.00
7562;DHT22;3822;48.784;9.174;2023-04-24T06:32:02;12.70;93.00
7562;DHT22;3822;48.784;9.174;2023-04-24T06:34:28;12.70;92.80
7562;DHT22;3822;48.784;9.174;2023-04-24T06:36:56;13.80;93.20
7562;DHT22;3822;48.784;9.174;2023-04-24T06:39:22;11.10;92.00
7562;DHT22;3822;48.784;9.174;2023-04-24T06:41:49;12.90;92.60
7562;DHT22;3822;48.784;9.174;2023-04-24T06:44:15;13.00;92.60
7562;DHT22;3822;48.784;9.174;2023-04-24T06:46:42;13.10;92.20
7562;DHT22;3822;48.784;9.174;2023-04-24T06:49:09;13.10;92.00
7562;DHT22;3822;48.784;9.174;2023-04-24T06:51:35;13.20;91.90
7562;DHT22;3822;48.784;9.174;2023-04-24T06:54:02;13.30;91.80
7562;DHT22;3822;48.784;9.174;2023-04-24T06:56:31;13.30;91.50
7562;DHT22;3822;48.784;9.174;2023-04-24T06:58:57;13.40;91.40
7562;DHT22;3822;48.784;9.174;2023-04-24T07:01:24;13.50;91.10
7562;DHT22;3822;48.784;9.174;2023-04-24T07:03:50;13.60;90.80
7562;DHT22;3822;48.784;9.174;2023-04-24T07:06:19;13.60;90.50
7562;DHT22;3822;48.784;9.174;2023-04-24T07:08:48;13.60;90.40
7562;DHT22;3822;48.784;9.174;2023-04-24T07:11:14;13.70;90.10
7562;DHT22;3822;48.784;9.174;2023-04-24T07:13:41;13.70;90.10
7562;DHT22;3822;48.784;9.174;2023-04-24T07:16:09;13.70;89.60
7562;DHT22;3822;48.784;9.174;2023-04-24T07:18:36;13.70;88.90
7562;DHT22;3822;48.784;9.174;2023-04-24T07:21:03;13.70;88.70
7562;DHT22;3822;48.784;9.174;2023-04-24T07:23:30;13.60;88.40
7562;DHT22;3822;48.784;9.174;2023-04-24T07:25:57;13.60;88.60
7562;DHT22;3822;48.784;9.174;2023-04-24T07:28:26;13.60;88.80
7562;DHT22;3822;48.784;9.174;2023-04-24T07:30:52;13.60;88.90
7562;DHT22;3822;48.784;9.174;2023-04-24T07:33:19;13.60;88.10
7562;DHT22;3822;48.784;9.174;2023-04-24T07:35:46;13.50;86.70
7562;DHT22;3822;48.784;9.174;2023-04-24T07:38:12;13.50;85.80
7562;DHT22;3822;48.784;9.174;2023-04-24T07:40:38;13.60;85.20
7562;DHT22;3822;48.784;9.174;2023-04-24T07:43:05;13.60;84.50
7562;DHT22;3822;48.784;9.174;2023-04-24T07:45:31;13.60;83.00
7562;DHT22;3822;48.784;9.174;2023-04-24T07:47:59;13.70;82.70
7562;DHT22;3822;48.784;9.174;2023-04-24T07:50:28;13.70;80.90
7562;DHT22;3822;48.784;9.174;2023-04-24T07:52:54;13.70;79.30
7562;DHT22;3822;48.784;9.174;2023-04-24T07:55:20;13.70;79.00
7562;DHT22;3822;48.784;9.174;2023-04-24T07:57:47;13.70;78.90
7562;DHT22;3822;48.784;9.174;2023-04-24T08:00:13;13.70;78.40
7562;DHT22;3822;48.784;9.174;2023-04-24T08:02:43;13.60;78.00
7562;DHT22;3822;48.784;9.174;2023-04-24T08:05:09;13.60;77.30
7562;DHT22;3822;48.784;9.174;2023-04-24T08:07:36;13.60;77.30
7562;DHT22;3822;48.784;9.174;2023-04-24T08:10:02;13.60;76.70
7562;DHT22;3822;48.784;9.174;2023-04-24T08:12:29;13.60;77.30
7562;DHT22;3822;48.784;9.174;2023-04-24T08:14:55;13.60;77.30
7562;DHT22;3822;48.784;9.174;2023-04-24T08:17:21;13.50;76.90
7562;DHT22;3822;48.784;9.174;2023-04-24T08:19:48;13.50;76.60
7562;DHT22;3822;48.784;9.174;2023-04-24T08:22:14;13.50;76.50
7562;DHT22;3822;48.784;9.174;2023-04-24T08:24:44;13.50;76.30
7562;DHT22;3822;48.784;9.174;2023-04-24T08:27:10;13.50;75.90
7562;DHT22;3822;48.784;9.174;2023-04-24T08:29:39;13.40;75.20
7562;DHT22;3822;48.784;9.174;2023-04-24T08:37:49;13.40;74.60
7562;DHT22;3822;48.784;9.174;2023-04-24T08:40:16;13.40;75.00
7562;DHT22;3822;48.784;9.174;2023-04-24T08:42:51;13.40;75.20
7562;DHT22;3822;48.784;9.174;2023-04-24T08:48:32;13.30;75.10
7562;DHT22;3822;48.784;9.174;2023-04-24T08:51:05;13.30;75.20
7562;DHT22;3822;48.784;9.174;2023-04-24T08:53:41;13.30;75.50
7562;DHT22;3822;48.784;9.174;2023-04-24T08:56:07;13.30;75.80
7562;DHT22;3822;48.784;9.174;2023-04-24T08:58:34;13.20;75.90
7562;DHT22;3822;48.784;9.174;2023-04-24T09:01:13;13.20;76.20
7562;DHT22;3822;48.784;9.174;2023-04-24T09:06:59;13.20;77.60
7562;DHT22;3822;48.784;9.174;2023-04-24T09:09:30;13.20;77.60
7562;DHT22;3822;48.784;9.174;2023-04-24T09:18:07;13.10;77.40
7562;DHT22;3822;48.784;9.174;2023-04-24T09:24:06;13.00;79.90
7562;DHT22;3822;48.784;9.174;2023-04-24T09:30:20;12.70;81.60
7562;DHT22;3822;48.784;9.174;2023-04-24T09:33:41;12.60;82.40
7562;DHT22;3822;48.784;9.174;2023-04-24T09:39:19;12.50;83.60
7562;DHT22;3822;48.784;9.174;2023-04-24T09:44:50;12.40;83.40
7562;DHT22;3822;48.784;9.174;2023-04-24T09:47:27;12.40;83.30
7562;DHT22;3822;48.784;9.174;2023-04-24T09:49:59;13.80;84.80
7562;DHT22;3822;48.784;9.174;2023-04-24T09:53:02;12.50;83.30
7562;DHT22;3822;48.784;9.174;2023-04-24T09:58:44;11.30;80.70
7562;DHT22;3822;48.784;9.174;2023-04-24T10:01:12;12.60;81.00
7562;DHT22;3822;48.784;9.174;2023-04-24T10:07:29;12.70;80.70
7562;DHT22;3822;48.784;9.174;2023-04-24T10:10:10;12.70;79.00
7562;DHT22;3822;48.784;9.174;2023-04-24T10:15:34;12.90;76.30
7562;DHT22;3822;48.784;9.174;2023-04-24T10:18:10;12.90;75.20
7562;DHT22;3822;48.784;9.174;2023-04-24T10:20:39;12.90;73.90
7562;DHT22;3822;48.784;9.174;2023-04-24T10:25:42;13.00;71.40
7562;DHT22;3822;48.784;9.174;2023-04-24T10:28:09;13.00;71.60
7562;DHT22;3822;48.784;9.174;2023-04-24T10:30:35;13.10;70.10
7562;DHT22;3822;48.784;9.174;2023-04-24T10:33:02;13.20;69.90
7562;DHT22;3822;48.784;9.174;2023-04-24T10:35:33;13.30;69.30
7562;DHT22;3822;48.784;9.174;2023-04-24T10:38:14;13.40;69.00
7562;DHT22;3822;48.784;9.174;2023-04-24T10:40:45;13.40;68.80
7562;DHT22;3822;48.784;9.174;2023-04-24T10:43:11;13.50;69.70
7562;DHT22;3822;48.784;9.174;2023-04-24T10:45:43;14.90;70.60
7562;DHT22;3822;48.784;9.174;2023-04-24T10:48:28;13.60;69.40
7562;DHT22;3822;48.784;9.174;2023-04-24T10:50:54;13.60;69.30
7562;DHT22;3822;48.784;9.174;2023-04-24T10:53:24;13.60;68.40
7562;DHT22;3822;48.784;9.174;2023-04-24T10:55:57;13.60;68.00
7562;DHT22;3822;48.784;9.174;2023-04-24T10:58:37;13.50;68.30
7562;DHT22;3822;48.784;9.174;2023-04-24T11:01:04;13.60;68.70
7562;DHT22;3822;48.784;9.174;2023-04-24T11:03:31;13.60;68.70
7562;DHT22;3822;48.784;9.174;2023-04-24T11:06:02;13.60;69.10
7562;DHT22;3822;48.784;9.174;2023-04-24T11:08:43;13.70;69.10
7562;DHT22;3822;48.784;9.174;2023-04-24T11:14:24;13.60;68.60
7562;DHT22;3822;48.784;9.174;2023-04-24T11:16:28;13.60;68.60
7562;DHT22;3822;48.784;9.174;2023-04-24T11:21:43;13.60;69.30
7562;DHT22;3822;48.784;9.174;2023-04-24T11:24:24;13.60;69.20
7562;DHT22;3822;48.784;9.174;2023-04-24T11:26:56;13.60;69.30
7562;DHT22;3822;48.784;9.174;2023-04-24T11:32:30;13.60;69.10
7562;DHT22;3822;48.784;9.174;2023-04-24T11:37:50;13.70;68.10
7562;DHT22;3822;48.784;9.174;2023-04-24T11:40:18;13.80;67.80
7562;DHT22;3822;48.784;9.174;2023-04-24T11:42:47;13.80;67.50
7562;DHT22;3822;48.784;9.174;2023-04-24T11:47:41;14.00;67.90
7562;DHT22;3822;48.784;9.174;2023-04-24T11:50:14;14.00;68.10
7562;DHT22;3822;48.784;9.174;2023-04-24T11:52:44;14.00;68.10
7562;DHT22;3822;48.784;9.174;2023-04-24T11:57:52;13.90;70.00
7562;DHT22;3822;48.784;9.174;2023-04-24T12:00:20;13.80;71.30
7562;DHT22;3822;48.784;9.174;2023-04-24T12:02:49;13.70;71.70
7562;DHT22;3822;48.784;9.174;2023-04-24T12:05:19;13.60;71.30
7562;DHT22;3822;48.784;9.174;2023-04-24T12:07:46;13.70;71.30
7562;DHT22;3822;48.784;9.174;2023-04-24T12:10:19;13.70;70.70
7562;DHT22;3822;48.784;9.174;2023-04-24T12:12:47;13.70;70.50
7562;DHT22;3822;48.784;9.174;2023-04-24T12:15:16;13.90;69.60
7562;DHT22;3822;48.784;9.174;2023-04-24T12:17:43;13.90;69.70
7562;DHT22;3822;48.784;9.174;2023-04-24T12:20:10;13.90;69.30
7562;DHT22;3822;48.784;9.174;2023-04-24T12:22:53;13.90;68.40
7562;DHT22;3822;48.784;9.174;2023-04-24T12:25:26;13.90;68.40
7562;DHT22;3822;48.784;9.174;2023-04-24T12:30:32;13.80;67.80
7562;DHT22;3822;48.784;9.174;2023-04-24T12:32:59;13.80;68.10
7562;DHT22;3822;48.784;9.174;2023-04-24T12:35:31;13.80;67.70
7562;DHT22;3822;48.784;9.174;2023-04-24T12:38:05;13.80;68.10
7562;DHT22;3822;48.784;9.174;2023-04-24T12:40:36;13.80;68.40
7562;DHT22;3822;48.784;9.174;2023-04-24T12:43:12;13.80;67.10
7562;DHT22;3822;48.784;9.174;2023-04-24T12:45:40;13.80;67.20
7562;DHT22;3822;48.784;9.174;2023-04-24T12:48:07;13.80;67.70
7562;DHT22;3822;48.784;9.174;2023-04-24T12:50:33;13.80;67.90
7562;DHT22;3822;48.784;9.174;2023-04-24T12:55:30;13.90;67.80
7562;DHT22;3822;48.784;9.174;2023-04-24T12:57:59;13.90;67.70
7562;DHT22;3822;48.784;9.174;2023-04-24T13:00:25;13.90;68.20
7562;DHT22;3822;48.784;9.174;2023-04-24T13:02:52;14.00;67.70
7562;DHT22;3822;48.784;9.174;2023-04-24T13:05:18;12.50;66.10
7562;DHT22;3822;48.784;9.174;2023-04-24T13:07:47;13.90;67.90
7562;DHT22;3822;48.784;9.174;2023-04-24T13:10:14;13.90;69.30
7562;DHT22;3822;48.784;9.174;2023-04-24T13:12:40;13.90;72.10
7562;DHT22;3822;48.784;9.174;2023-04-24T13:15:08;14.80;73.60
7562;DHT22;3822;48.784;9.174;2023-04-24T13:17:37;13.80;73.40
7562;DHT22;3822;48.784;9.174;2023-04-24T13:20:03;13.80;73.70
7562;DHT22;3822;48.784;9.174;2023-04-24T13:22:32;13.90;75.00
7562;DHT22;3822;48.784;9.174;2023-04-24T13:24:58;14.00;75.30
7562;DHT22;3822;48.784;9.174;2023-04-24T13:27:25;14.00;75.40
7562;DHT22;3822;48.784;9.174;2023-04-24T13:29:51;14.00;75.70
7562;DHT22;3822;48.784;9.174;2023-04-24T13:32:18;14.10;75.60
7562;DHT22;3822;48.784;9.174;2023-04-24T13:34:44;14.10;75.50
7562;DHT22;3822;48.784;9.174;2023-04-24T13:37:10;14.10;75.30
7562;DHT22;3822;48.784;9.174;2023-04-24T13:39:37;14.10;75.20
7562;DHT22;3822;48.784;9.174;2023-04-24T13:42:03;14.20;75.40
7562;DHT22;3822;48.784;9.174;2023-04-24T13:44:29;14.20;75.30
7562;DHT22;3822;48.784;9.174;2023-04-24T13:46:56;14.10;74.90
7562;DHT22;3822;48.784;9.174;2023-04-24T13:49:24;14.10;75.00
7562;DHT22;3822;48.784;9.174;2023-04-24T13:51:52;14.00;74.40
7562;DHT22;3822;48.784;9.174;2023-04-24T13:54:20;13.80;74.20
7562;DHT22;3822;48.784;9.174;2023-04-24T13:56:47;13.70;78.20
7562;DHT22;3822;48.784;9.174;2023-04-24T13:59:14;13.50;79.70
7562;DHT22;3822;48.784;9.174;2023-04-24T14:01:42;13.40;81.20
7562;DHT22;3822;48.784;9.174;2023-04-24T14:04:10;13.30;82.40
7562;DHT22;3822;48.784;9.174;2023-04-24T14:06:37;13.10;83.80
7562;DHT22;3822;48.784;9.174;2023-04-24T14:09:03;13.10;85.00
7562;DHT22;3822;48.784;9.174;2023-04-24T14:11:30;13.10;86.40
7562;DHT22;3822;48.784;9.174;2023-04-24T14:13:56;13.20;85.60
7562;DHT22;3822;48.784;9.174;2023-04-24T14:16:25;13.30;85.40
7562;DHT22;3822;48.784;9.174;2023-04-24T14:18:51;13.40;84.50
7562;DHT22;3822;48.784;9.174;2023-04-24T14:21:19;13.40;84.70
7562;DHT22;3822;48.784;9.174;2023-04-24T14:23:45;13.50;84.30
7562;DHT22;3822;48.784;9.174;2023-04-24T14:26:14;13.60;84.90
7562;DHT22;3822;48.784;9.174;2023-04-24T14:28:40;13.60;83.40
7562;DHT22;3822;48.784;9.174;2023-04-24T14:31:08;13.70;83.50
7562;DHT22;3822;48.784;9.174;2023-04-24T14:33:35;13.80;83.50
7562;DHT22;3822;48.784;9.174;2023-04-24T14:36:01;13.90;82.20
7562;DHT22;3822;48.784;9.174;2023-04-24T14:38:28;14.00;82.00
7562;DHT22;3822;48.784;9.174;2023-04-24T14:40:56;12.60;77.80
7562;DHT22;3822;48.784;9.174;2023-04-24T14:43:22;14.20;78.30
7562;DHT22;3822;48.784;9.174;2023-04-24T14:45:48;14.30;78.00
7562;DHT22;3822;48.784;9.174;2023-04-24T14:48:16;14.30;77.60
7562;DHT22;3822;48.784;9.174;2023-04-24T14:50:43;14.30;77.10
7562;DHT22;3822;48.784;9.174;2023-04-24T14:53:09;14.20;76.60
7562;DHT22;3822;48.784;9.174;2023-04-24T14:55:36;14.20;77.20
7562;DHT22;3822;48.784;9.174;2023-04-24T14:58:02;14.20;77.10
7562;DHT22;3822;48.784;9.174;2023-04-24T15:00:30;14.10;77.30
7562;DHT22;3822;48.784;9.174;2023-04-24T15:02:57;14.10;77.40
7562;DHT22;3822;48.784;9.174;2023-04-24T15:05:23;14.20;77.30
7562;DHT22;3822;48.784;9.174;2023-04-24T15:07:50;14.30;77.60
7562;DHT22;3822;48.784;9.174;2023-04-24T15:10:16;14.40;77.10
7562;DHT22;3822;48.784;9.174;2023-04-24T15:12:43;14.50;76.50
7562;DHT22;3822;48.784;9.174;2023-04-24T15:15:09;14.50;75.40
7562;DHT22;3822;48.784;9.174;2023-04-24T15:17:36;14.50;75.00
7562;DHT22;3822;48.784;9.174;2023-04-24T15:20:05;14.40;74.10
7562;DHT22;3822;48.784;9.174;2023-04-24T15:22:32;14.50;74.20
7562;DHT22;3822;48.784;9.174;2023-04-24T15:24:58;14.40;73.60
7562;DHT22;3822;48.784;9.174;2023-04-24T15:27:38;14.30;73.60
7562;DHT22;3822;48.784;9.174;2023-04-24T15:30:09;14.30;74.00
7562;DHT22;3822;48.784;9.174;2023-04-24T15:32:38;14.20;74.20
7562;DHT22;3822;48.784;9.174;2023-04-24T15:35:05;14.20;74.20
7562;DHT22;3822;48.784;9.174;2023-04-24T15:37:32;14.20;74.70
7562;DHT22;3822;48.784;9.174;2023-04-24T15:40:00;14.20;75.90
7562;DHT22;3822;48.784;9.174;2023-04-24T15:42:26;12.90;76.60
7562;DHT22;3822;48.784;9.174;2023-04-24T15:44:54;14.00;77.90
7562;DHT22;3822;48.784;9.174;2023-04-24T15:47:26;14.00;78.40
7562;DHT22;3822;48.784;9.174;2023-04-24T15:49:52;13.90;78.80
7562;DHT22;3822;48.784;9.174;2023-04-24T15:52:22;13.80;79.50
7562;DHT22;3822;48.784;9.174;2023-04-24T15:54:48;13.80;80.10
7562;DHT22;3822;48.784;9.174;2023-04-24T15:57:14;13.70;80.50
7562;DHT22;3822;48.784;9.174;2023-04-24T15:59:41;13.60;80.30
7562;DHT22;3822;48.784;9.174;2023-04-24T16:02:09;13.60;80.30
7562;DHT22;3822;48.784;9.174;2023-04-24T16:04:39;13.70;80.90
7562;DHT22;3822;48.784;9.174;2023-04-24T16:07:05;13.80;81.30
7562;DHT22;3822;48.784;9.174;2023-04-24T16:09:32;13.80;81.50
7562;DHT22;3822;48.784;9.174;2023-04-24T16:11:58;14.00;81.60
7562;DHT22;3822;48.784;9.174;2023-04-24T16:14:24;14.10;81.90
7562;DHT22;3822;48.784;9.174;2023-04-24T16:16:51;14.30;82.20
7562;DHT22;3822;48.784;9.174;2023-04-24T16:19:17;14.50;81.80
7562;DHT22;3822;48.784;9.174;2023-04-24T16:21:45;14.60;81.20
7562;DHT22;3822;48.784;9.174;2023-04-24T16:24:15;14.70;80.40
7562;DHT22;3822;48.784;9.174;2023-04-24T16:26:41;14.70;79.90
7562;DHT22;3822;48.784;9.174;2023-04-24T16:29:09;14.70;79.50
7562;DHT22;3822;48.784;9.174;2023-04-24T16:34:08;14.70;79.10
7562;DHT22;3822;48.784;9.174;2023-04-24T16:36:35;14.80;78.70
7562;DHT22;3822;48.784;9.174;2023-04-24T16:39:02;14.70;78.50
7562;DHT22;3822;48.784;9.174;2023-04-24T16:41:32;14.70;78.60
7562;DHT22;3822;48.784;9.174;2023-04-24T16:43:59;14.80;78.80
7562;DHT22;3822;48.784;9.174;2023-04-24T16:48:55;14.80;78.80
7562;DHT22;3822;48.784;9.174;2023-04-24T16:51:22;14.80;78.70
7562;DHT22;3822;48.784;9.174;2023-04-24T16:53:48;14.80;78.60
7562;DHT22;3822;48.784;9.174;2023-04-24T16:56:15;14.90;78.90
7562;DHT22;3822;48.784;9.174;2023-04-24T16:58:41;14.90;78.60
7562;DHT22;3822;48.784;9.174;2023-04-24T17:01:08;15.00;78.70
7562;DHT22;3822;48.784;9.174;2023-04-24T17:03:35;15.10;78.60
7562;DHT22;3822;48.784;9.174;2023-04-24T17:06:01;15.10;78.20
7562;DHT22;3822;48.784;9.174;2023-04-24T17:08:29;15.10;77.70
7562;DHT22;3822;48.784;9.174;2023-04-24T17:10:58;15.30;77.20
7562;DHT22;3822;48.784;9.174;2023-04-24T17:13:24;15.30;76.20
7562;DHT22;3822;48.784;9.174;2023-04-24T17:15:51;15.40;75.80
7562;DHT22;3822;48.784;9.174;2023-04-24T17:18:17;15.50;75.30